sensor_id;sensor_type;location;lat;lon;timestamp;P1;durP1;ratioP1;P2;durP2;ratioP2
10110;SDS011;5095;49.796;9.934;2023-04-25T00:00:33;2.83;;;2.53;;
10110;SDS011;5095;49.796;9.934;2023-04-25T00:02:59;4.43;;;2.93;;
10110;SDS011;5095;49.796;9.934;2023-04-25T00:05:26;4.20;;;3.10;;
10110;SDS011;5095;49.796;9.934;2023-04-25T00:07:52;3.60;;;2.73;;
10110;SDS011;5095;49.796;9.934;2023-04-25T00:10:19;4.37;;;3.00;;
10110;SDS011;5095;49.796;9.934;2023-04-25T00:12:45;4.00;;;3.10;;
10110;SDS011;5095;49.796;9.934;2023-04-25T00:15:11;4.57;;;2.87;;
10110;SDS011;5095;49.796;9.934;2023-04-25T00:17:38;3.43;;;3.13;;
10110;SDS011;5095;49.796;9.934;2023-04-25T00:20:04;4.53;;;3.00;;
10110;SDS011;5095;49.796;9.934;2023-04-25T00:22:31;3.50;;;3.10;;
10110;SDS011;5095;49.796;9.934;2023-04-25T00:24:57;4.53;;;3.00;;
10110;SDS011;5095;49.796;9.934;2023-04-25T00:27:25;4.67;;;2.60;;
10110;SDS011;5095;49.796;9.934;2023-04-25T00:29:52;3.30;;;2.80;;
10110;SDS011;5095;49.796;9.934;2023-04-25T00:32:18;5.43;;;3.07;;
10110;SDS011;5095;49.796;9.934;2023-04-25T00:34:45;4.90;;;3.03;;
10110;SDS011;5095;49.796;9.934;2023-04-25T00:37:11;5.10;;;3.20;;
10110;SDS011;5095;49.796;9.934;2023-04-25T00:39:37;4.00;;;2.93;;
10110;SDS011;5095;49.796;9.934;2023-04-25T00:42:03;4.00;;;3.10;;
10110;SDS011;5095;49.796;9.934;2023-04-25T00:44:30;3.83;;;2.80;;
10110;SDS011;5095;49.796;9.934;2023-04-25T00:47:01;4.07;;;3.20;;
10110;SDS011;5095;49.796;9.934;2023-04-25T00:49:28;5.33;;;3.10;;
10110;SDS011;5095;49.796;9.934;2023-04-25T00:51:54;5.07;;;2.90;;
10110;SDS011;5095;49.796;9.934;2023-04-25T00:54:21;4.53;;;2.90;;
10110;SDS011;5095;49.796;9.934;2023-04-25T00:56:47;3.77;;;3.00;;
10110;SDS011;5095;49.796;9.934;2023-04-25T00:59:14;3.53;;;2.90;;
10110;SDS011;5095;49.796;9.934;2023-04-25T01:01:40;5.17;;;3.27;;
10110;SDS011;5095;49.796;9.934;2023-04-25T01:04:07;4.63;;;3.10;;
10110;SDS011;5095;49.796;9.934;2023-04-25T01:06:33;4.00;;;2.97;;
10110;SDS011;5095;49.796;9.934;2023-04-25T01:08:59;5.80;;;3.23;;
10110;SDS011;5095;49.796;9.934;2023-04-25T01:11:25;5.83;;;3.40;;
10110;SDS011;5095;49.796;9.934;2023-04-25T01:13:51;5.27;;;3.40;;
10110;SDS011;5095;49.796;9.934;2023-04-25T01:16:17;4.13;;;3.10;;
10110;SDS011;5095;49.796;9.934;2023-04-25T01:18:43;4.47;;;3.10;;
10110;SDS011;5095;49.796;9.934;2023-04-25T01:21:11;3.50;;;2.87;;
10110;SDS011;5095;49.796;9.934;2023-04-25T01:23:41;2.90;;;2.60;;
10110;SDS011;5095;49.796;9.934;2023-04-25T01:26:11;3.47;;;2.60;;
10110;SDS011;5095;49.796;9.934;2023-04-25T01:28:37;4.60;;;2.80;;
10110;SDS011;5095;49.796;9.934;2023-04-25T01:31:07;5.33;;;2.60;;
10110;SDS011;5095;49.796;9.934;2023-04-25T01:33:33;4.77;;;2.60;;
10110;SDS011;5095;49.796;9.934;2023-04-25T01:35:59;3.00;;;2.63;;
10110;SDS011;5095;49.796;9.934;2023-04-25T01:38:25;2.70;;;2.40;;
10110;SDS011;5095;49.796;9.934;2023-04-25T01:40:51;2.40;;;2.20;;
10110;SDS011;5095;49.796;9.934;2023-04-25T01:43:17;2.43;;;2.20;;
10110;SDS011;5095;49.796;9.934;2023-04-25T01:45:43;2.73;;;2.40;;
10110;SDS011;5095;49.796;9.934;2023-04-25T01:48:10;3.30;;;2.47;;
10110;SDS011;5095;49.796;9.934;2023-04-25T01:50:37;3.77;;;2.93;;
10110;SDS011;5095;49.796;9.934;2023-04-25T01:53:03;3.27;;;2.10;;
10110;SDS011;5095;49.796;9.934;2023-04-25T01:55:30;2.93;;;2.20;;
10110;SDS011;5095;49.796;9.934;2023-04-25T01:57:56;2.50;;;2.30;;
10110;SDS011;5095;49.796;9.934;2023-04-25T02:00:22;2.83;;;2.30;;
10110;SDS011;5095;49.796;9.934;2023-04-25T02:02:48;2.47;;;2.20;;
10110;SDS011;5095;49.796;9.934;2023-04-25T02:05:15;3.07;;;2.50;;
10110;SDS011;5095;49.796;9.934;2023-04-25T02:07:42;2.90;;;2.30;;
10110;SDS011;5095;49.796;9.934;2023-04-25T02:10:08;2.33;;;2.13;;
10110;SDS011;5095;49.796;9.934;2023-04-25T02:12:35;3.50;;;2.30;;
10110;SDS011;5095;49.796;9.934;2023-04-25T02:15:01;3.10;;;2.20;;
10110;SDS011;5095;49.796;9.934;2023-04-25T02:17:27;2.30;;;2.10;;
10110;SDS011;5095;49.796;9.934;2023-04-25T02:19:53;2.63;;;2.30;;
10110;SDS011;5095;49.796;9.934;2023-04-25T02:22:19;1.97;;;1.77;;
10110;SDS011;5095;49.796;9.934;2023-04-25T02:24:46;3.13;;;2.03;;
10110;SDS011;5095;49.796;9.934;2023-04-25T02:27:12;2.40;;;2.00;;
10110;SDS011;5095;49.796;9.934;2023-04-25T02:29:38;2.07;;;1.83;;
10110;SDS011;5095;49.796;9.934;2023-04-25T02:32:04;1.97;;;1.77;;
10110;SDS011;5095;49.796;9.934;2023-04-25T02:34:30;1.80;;;1.70;;
10110;SDS011;5095;49.796;9.934;2023-04-25T02:39:47;1.60;;;1.50;;
10110;SDS011;5095;49.796;9.934;2023-04-25T02:42:14;2.00;;;1.60;;
10110;SDS011;5095;49.796;9.934;2023-04-25T02:44:40;1.90;;;1.70;;
10110;SDS011;5095;49.796;9.934;2023-04-25T02:47:06;2.20;;;2.00;;
10110;SDS011;5095;49.796;9.934;2023-04-25T02:49:32;1.57;;;1.47;;
10110;SDS011;5095;49.796;9.934;2023-04-25T02:51:58;2.63;;;1.63;;
10110;SDS011;5095;49.796;9.934;2023-04-25T02:54:24;1.80;;;1.57;;
10110;SDS011;5095;49.796;9.934;2023-04-25T02:56:50;1.90;;;1.80;;
10110;SDS011;5095;49.796;9.934;2023-04-25T02:59:16;2.50;;;1.60;;
10110;SDS011;5095;49.796;9.934;2023-04-25T03:01:42;2.17;;;1.50;;
10110;SDS011;5095;49.796;9.934;2023-04-25T03:04:08;2.17;;;1.70;;
10110;SDS011;5095;49.796;9.934;2023-04-25T03:06:34;2.23;;;1.93;;
10110;SDS011;5095;49.796;9.934;2023-04-25T03:09:00;1.67;;;1.57;;
10110;SDS011;5095;49.796;9.934;2023-04-25T03:11:27;2.13;;;1.70;;
10110;SDS011;5095;49.796;9.934;2023-04-25T03:13:53;1.63;;;1.53;;
10110;SDS011;5095;49.796;9.934;2023-04-25T03:16:19;2.67;;;1.80;;
10110;SDS011;5095;49.796;9.934;2023-04-25T03:18:45;2.10;;;1.73;;
10110;SDS011;5095;49.796;9.934;2023-04-25T03:21:11;2.53;;;2.00;;
10110;SDS011;5095;49.796;9.934;2023-04-25T03:23:37;2.27;;;1.90;;
10110;SDS011;5095;49.796;9.934;2023-04-25T03:26:03;2.43;;;1.90;;
10110;SDS011;5095;49.796;9.934;2023-04-25T03:28:29;2.80;;;2.13;;
10110;SDS011;5095;49.796;9.934;2023-04-25T03:30:55;2.20;;;2.00;;
10110;SDS011;5095;49.796;9.934;2023-04-25T03:33:21;2.83;;;2.13;;
10110;SDS011;5095;49.796;9.934;2023-04-25T03:35:47;2.70;;;2.40;;
10110;SDS011;5095;49.796;9.934;2023-04-25T03:38:14;2.60;;;2.40;;
10110;SDS011;5095;49.796;9.934;2023-04-25T03:40:40;2.63;;;2.43;;
10110;SDS011;5095;49.796;9.934;2023-04-25T03:43:06;2.77;;;2.47;;
10110;SDS011;5095;49.796;9.934;2023-04-25T03:45:33;2.90;;;2.60;;
10110;SDS011;5095;49.796;9.934;2023-04-25T03:47:59;3.23;;;2.83;;
10110;SDS011;5095;49.796;9.934;2023-04-25T03:50:25;3.90;;;2.93;;
10110;SDS011;5095;49.796;9.934;2023-04-25T03:52:51;3.97;;;3.20;;
10110;SDS011;5095;49.796;9.934;2023-04-25T03:55:17;3.97;;;3.33;;
10110;SDS011;5095;49.796;9.934;2023-04-25T03:57:43;4.30;;;3.33;;
10110;SDS011;5095;49.796;9.934;2023-04-25T04:00:09;4.87;;;3.67;;
10110;SDS011;5095;49.796;9.934;2023-04-25T04:02:35;4.53;;;3.17;;
10110;SDS011;5095;49.796;9.934;2023-04-25T04:05:02;4.40;;;3.40;;
10110;SDS011;5095;49.796;9.934;2023-04-25T04:07:28;5.40;;;3.90;;
10110;SDS011;5095;49.796;9.934;2023-04-25T04:09:57;4.20;;;3.40;;
10110;SDS011;5095;49.796;9.934;2023-04-25T04:12:23;4.67;;;3.63;;
10110;SDS011;5095;49.796;9.934;2023-04-25T04:14:49;6.10;;;3.87;;
10110;SDS011;5095;49.796;9.934;2023-04-25T04:17:15;5.37;;;4.20;;
10110;SDS011;5095;49.796;9.934;2023-04-25T04:19:41;4.73;;;3.73;;
10110;SDS011;5095;49.796;9.934;2023-04-25T04:22:07;7.07;;;4.23;;
10110;SDS011;5095;49.796;9.934;2023-04-25T04:24:33;5.30;;;4.20;;
10110;SDS011;5095;49.796;9.934;2023-04-25T04:26:59;4.67;;;3.60;;
10110;SDS011;5095;49.796;9.934;2023-04-25T04:29:25;6.30;;;4.30;;
10110;SDS011;5095;49.796;9.934;2023-04-25T04:31:52;5.50;;;4.07;;
10110;SDS011;5095;49.796;9.934;2023-04-25T04:34:18;4.50;;;3.87;;
10110;SDS011;5095;49.796;9.934;2023-04-25T04:36:45;5.43;;;4.30;;
10110;SDS011;5095;49.796;9.934;2023-04-25T04:39:12;5.57;;;4.10;;
10110;SDS011;5095;49.796;9.934;2023-04-25T04:41:38;6.43;;;4.50;;
10110;SDS011;5095;49.796;9.934;2023-04-25T04:44:04;6.13;;;4.73;;
10110;SDS011;5095;49.796;9.934;2023-04-25T04:46:31;6.50;;;4.40;;
10110;SDS011;5095;49.796;9.934;2023-04-25T04:49:04;5.60;;;4.50;;
10110;SDS011;5095;49.796;9.934;2023-04-25T04:51:30;6.50;;;4.60;;
10110;SDS011;5095;49.796;9.934;2023-04-25T04:53:56;6.07;;;4.60;;
10110;SDS011;5095;49.796;9.934;2023-04-25T04:56:23;5.80;;;4.50;;
10110;SDS011;5095;49.796;9.934;2023-04-25T04:58:50;6.23;;;4.70;;
10110;SDS011;5095;49.796;9.934;2023-04-25T05:01:17;8.47;;;6.33;;
10110;SDS011;5095;49.796;9.934;2023-04-25T05:03:43;7.53;;;4.83;;
10110;SDS011;5095;49.796;9.934;2023-04-25T05:06:09;5.57;;;4.57;;
10110;SDS011;5095;49.796;9.934;2023-04-25T05:08:36;5.80;;;4.53;;
10110;SDS011;5095;49.796;9.934;2023-04-25T05:11:02;5.03;;;4.00;;
10110;SDS011;5095;49.796;9.934;2023-04-25T05:13:28;5.57;;;4.90;;
10110;SDS011;5095;49.796;9.934;2023-04-25T05:15:54;6.50;;;4.60;;
10110;SDS011;5095;49.796;9.934;2023-04-25T05:18:20;5.67;;;4.77;;
10110;SDS011;5095;49.796;9.934;2023-04-25T05:20:46;6.97;;;5.30;;
10110;SDS011;5095;49.796;9.934;2023-04-25T05:23:12;5.97;;;4.87;;
10110;SDS011;5095;49.796;9.934;2023-04-25T05:25:38;6.40;;;4.80;;
10110;SDS011;5095;49.796;9.934;2023-04-25T05:28:04;6.40;;;5.10;;
10110;SDS011;5095;49.796;9.934;2023-04-25T05:30:30;6.53;;;4.80;;
10110;SDS011;5095;49.796;9.934;2023-04-25T05:32:56;7.00;;;5.20;;
10110;SDS011;5095;49.796;9.934;2023-04-25T05:35:22;6.37;;;4.77;;
10110;SDS011;5095;49.796;9.934;2023-04-25T05:37:48;6.23;;;4.90;;
10110;SDS011;5095;49.796;9.934;2023-04-25T05:40:14;6.63;;;5.10;;
10110;SDS011;5095;49.796;9.934;2023-04-25T05:42:40;8.50;;;5.33;;
10110;SDS011;5095;49.796;9.934;2023-04-25T05:45:07;6.77;;;5.00;;
10110;SDS011;5095;49.796;9.934;2023-04-25T05:47:33;7.93;;;5.17;;
10110;SDS011;5095;49.796;9.934;2023-04-25T05:49:59;8.07;;;5.50;;
10110;SDS011;5095;49.796;9.934;2023-04-25T05:52:25;7.37;;;5.67;;
10110;SDS011;5095;49.796;9.934;2023-04-25T05:54:51;6.00;;;4.43;;
10110;SDS011;5095;49.796;9.934;2023-04-25T05:57:24;7.10;;;4.80;;
10110;SDS011;5095;49.796;9.934;2023-04-25T05:59:50;8.47;;;5.33;;
10110;SDS011;5095;49.796;9.934;2023-04-25T06:02:17;6.53;;;5.10;;
10110;SDS011;5095;49.796;9.934;2023-04-25T06:04:43;6.23;;;5.03;;
10110;SDS011;5095;49.796;9.934;2023-04-25T06:07:09;7.33;;;5.30;;
10110;SDS011;5095;49.796;9.934;2023-04-25T06:09:35;6.40;;;5.10;;
10110;SDS011;5095;49.796;9.934;2023-04-25T06:12:01;7.63;;;5.20;;
10110;SDS011;5095;49.796;9.934;2023-04-25T06:14:28;7.67;;;5.10;;
10110;SDS011;5095;49.796;9.934;2023-04-25T06:16:54;6.87;;;5.13;;
10110;SDS011;5095;49.796;9.934;2023-04-25T06:19:20;7.40;;;5.00;;
10110;SDS011;5095;49.796;9.934;2023-04-25T06:21:46;7.77;;;5.67;;
10110;SDS011;5095;49.796;9.934;2023-04-25T06:24:12;8.27;;;5.43;;
10110;SDS011;5095;49.796;9.934;2023-04-25T06:26:38;7.43;;;6.03;;
10110;SDS011;5095;49.796;9.934;2023-04-25T06:29:04;9.70;;;6.27;;
10110;SDS011;5095;49.796;9.934;2023-04-25T06:31:30;8.53;;;5.30;;
10110;SDS011;5095;49.796;9.934;2023-04-25T06:34:00;9.67;;;4.70;;
10110;SDS011;5095;49.796;9.934;2023-04-25T06:36:26;9.53;;;5.50;;
10110;SDS011;5095;49.796;9.934;2023-04-25T06:38:52;9.90;;;5.87;;
10110;SDS011;5095;49.796;9.934;2023-04-25T06:41:19;7.30;;;4.70;;
10110;SDS011;5095;49.796;9.934;2023-04-25T06:43:45;9.80;;;5.70;;
10110;SDS011;5095;49.796;9.934;2023-04-25T06:46:11;8.07;;;5.20;;
10110;SDS011;5095;49.796;9.934;2023-04-25T06:48:37;10.37;;;5.60;;
10110;SDS011;5095;49.796;9.934;2023-04-25T06:51:03;14.27;;;6.40;;
10110;SDS011;5095;49.796;9.934;2023-04-25T06:53:29;12.30;;;5.80;;
10110;SDS011;5095;49.796;9.934;2023-04-25T06:55:55;9.23;;;4.87;;
10110;SDS011;5095;49.796;9.934;2023-04-25T06:58:21;6.00;;;4.77;;
10110;SDS011;5095;49.796;9.934;2023-04-25T07:00:47;9.93;;;5.20;;
10110;SDS011;5095;49.796;9.934;2023-04-25T07:03:13;7.53;;;4.87;;
10110;SDS011;5095;49.796;9.934;2023-04-25T07:05:39;9.27;;;5.20;;
10110;SDS011;5095;49.796;9.934;2023-04-25T07:08:05;8.13;;;5.27;;
10110;SDS011;5095;49.796;9.934;2023-04-25T07:10:32;7.50;;;5.30;;
10110;SDS011;5095;49.796;9.934;2023-04-25T07:12:58;9.10;;;4.87;;
10110;SDS011;5095;49.796;9.934;2023-04-25T07:15:23;9.73;;;4.60;;
10110;SDS011;5095;49.796;9.934;2023-04-25T07:17:49;6.97;;;4.70;;
10110;SDS011;5095;49.796;9.934;2023-04-25T07:20:16;7.23;;;4.07;;
10110;SDS011;5095;49.796;9.934;2023-04-25T07:22:42;7.13;;;4.80;;
10110;SDS011;5095;49.796;9.934;2023-04-25T07:25:09;10.87;;;6.03;;
10110;SDS011;5095;49.796;9.934;2023-04-25T07:27:35;10.17;;;4.87;;
10110;SDS011;5095;49.796;9.934;2023-04-25T07:30:02;9.27;;;5.07;;
10110;SDS011;5095;49.796;9.934;2023-04-25T07:32:28;7.80;;;4.50;;
10110;SDS011;5095;49.796;9.934;2023-04-25T07:34:55;10.87;;;4.17;;
10110;SDS011;5095;49.796;9.934;2023-04-25T07:37:21;10.50;;;4.77;;
10110;SDS011;5095;49.796;9.934;2023-04-25T07:39:47;6.20;;;4.13;;
10110;SDS011;5095;49.796;9.934;2023-04-25T07:42:13;12.53;;;4.60;;
10110;SDS011;5095;49.796;9.934;2023-04-25T07:44:39;8.90;;;4.20;;
10110;SDS011;5095;49.796;9.934;2023-04-25T07:47:07;5.77;;;3.90;;
10110;SDS011;5095;49.796;9.934;2023-04-25T07:49:33;10.00;;;5.37;;
10110;SDS011;5095;49.796;9.934;2023-04-25T07:52:00;6.37;;;4.10;;
10110;SDS011;5095;49.796;9.934;2023-04-25T07:54:26;6.83;;;3.97;;
10110;SDS011;5095;49.796;9.934;2023-04-25T07:56:52;6.77;;;3.40;;
10110;SDS011;5095;49.796;9.934;2023-04-25T07:59:18;9.33;;;3.80;;
10110;SDS011;5095;49.796;9.934;2023-04-25T08:01:44;6.60;;;4.00;;
10110;SDS011;5095;49.796;9.934;2023-04-25T08:04:10;8.23;;;3.63;;
10110;SDS011;5095;49.796;9.934;2023-04-25T08:06:36;7.43;;;3.20;;
10110;SDS011;5095;49.796;9.934;2023-04-25T08:09:02;5.70;;;2.70;;
10110;SDS011;5095;49.796;9.934;2023-04-25T08:11:29;6.90;;;2.40;;
10110;SDS011;5095;49.796;9.934;2023-04-25T08:13:55;6.87;;;2.50;;
10110;SDS011;5095;49.796;9.934;2023-04-25T08:16:21;2.90;;;2.20;;
10110;SDS011;5095;49.796;9.934;2023-04-25T08:18:47;6.33;;;2.80;;
10110;SDS011;5095;49.796;9.934;2023-04-25T08:21:13;5.10;;;2.70;;
10110;SDS011;5095;49.796;9.934;2023-04-25T08:23:40;4.63;;;2.60;;
10110;SDS011;5095;49.796;9.934;2023-04-25T08:26:06;5.63;;;2.00;;
10110;SDS011;5095;49.796;9.934;2023-04-25T08:28:32;5.13;;;2.03;;
10110;SDS011;5095;49.796;9.934;2023-04-25T08:30:58;4.43;;;2.00;;
10110;SDS011;5095;49.796;9.934;2023-04-25T08:33:24;2.23;;;1.50;;
10110;SDS011;5095;49.796;9.934;2023-04-25T08:35:50;2.10;;;1.90;;
10110;SDS011;5095;49.796;9.934;2023-04-25T08:38:17;3.33;;;1.70;;
10110;SDS011;5095;49.796;9.934;2023-04-25T08:40:43;4.93;;;1.97;;
10110;SDS011;5095;49.796;9.934;2023-04-25T08:43:09;2.90;;;2.00;;
10110;SDS011;5095;49.796;9.934;2023-04-25T08:45:39;2.07;;;1.77;;
10110;SDS011;5095;49.796;9.934;2023-04-25T08:48:07;4.03;;;1.70;;
10110;SDS011;5095;49.796;9.934;2023-04-25T08:50:36;2.60;;;1.60;;
10110;SDS011;5095;49.796;9.934;2023-04-25T08:53:03;2.63;;;1.80;;
10110;SDS011;5095;49.796;9.934;2023-04-25T08:55:30;4.30;;;1.93;;
10110;SDS011;5095;49.796;9.934;2023-04-25T08:57:56;3.40;;;2.40;;
10110;SDS011;5095;49.796;9.934;2023-04-25T09:00:22;3.73;;;2.30;;
10110;SDS011;5095;49.796;9.934;2023-04-25T09:02:49;5.80;;;2.30;;
10110;SDS011;5095;49.796;9.934;2023-04-25T09:05:15;3.60;;;1.87;;
10110;SDS011;5095;49.796;9.934;2023-04-25T09:07:41;3.47;;;1.80;;
10110;SDS011;5095;49.796;9.934;2023-04-25T09:10:07;3.80;;;1.97;;
10110;SDS011;5095;49.796;9.934;2023-04-25T09:12:33;3.87;;;2.20;;
10110;SDS011;5095;49.796;9.934;2023-04-25T09:15:01;3.03;;;2.00;;
10110;SDS011;5095;49.796;9.934;2023-04-25T09:17:28;2.73;;;1.97;;
10110;SDS011;5095;49.796;9.934;2023-04-25T09:19:54;5.33;;;2.00;;
10110;SDS011;5095;49.796;9.934;2023-04-25T09:22:20;3.07;;;1.80;;
10110;SDS011;5095;49.796;9.934;2023-04-25T09:24:47;2.97;;;1.80;;
10110;SDS011;5095;49.796;9.934;2023-04-25T09:27:20;2.50;;;1.63;;
10110;SDS011;5095;49.796;9.934;2023-04-25T09:29:50;2.90;;;2.07;;
10110;SDS011;5095;49.796;9.934;2023-04-25T09:32:22;3.17;;;1.70;;
10110;SDS011;5095;49.796;9.934;2023-04-25T09:34:55;3.53;;;1.67;;
10110;SDS011;5095;49.796;9.934;2023-04-25T09:39:48;2.93;;;1.60;;
10110;SDS011;5095;49.796;9.934;2023-04-25T09:42:15;1.90;;;1.50;;
10110;SDS011;5095;49.796;9.934;2023-04-25T09:44:42;3.57;;;1.70;;
10110;SDS011;5095;49.796;9.934;2023-04-25T09:47:09;2.40;;;1.50;;
10110;SDS011;5095;49.796;9.934;2023-04-25T09:49:38;2.47;;;1.60;;
10110;SDS011;5095;49.796;9.934;2023-04-25T09:52:04;6.40;;;2.37;;
10110;SDS011;5095;49.796;9.934;2023-04-25T09:54:30;4.23;;;2.00;;
10110;SDS011;5095;49.796;9.934;2023-04-25T09:56:56;2.83;;;1.90;;
10110;SDS011;5095;49.796;9.934;2023-04-25T09:59:23;2.73;;;1.60;;
10110;SDS011;5095;49.796;9.934;2023-04-25T10:01:49;3.17;;;1.93;;
10110;SDS011;5095;49.796;9.934;2023-04-25T10:04:19;5.20;;;2.37;;
10110;SDS011;5095;49.796;9.934;2023-04-25T10:06:46;4.57;;;2.20;;
10110;SDS011;5095;49.796;9.934;2023-04-25T10:09:14;2.83;;;1.70;;
10110;SDS011;5095;49.796;9.934;2023-04-25T10:11:40;4.00;;;2.13;;
10110;SDS011;5095;49.796;9.934;2023-04-25T10:14:06;4.77;;;1.90;;
10110;SDS011;5095;49.796;9.934;2023-04-25T10:16:32;3.10;;;1.93;;
10110;SDS011;5095;49.796;9.934;2023-04-25T10:18:59;4.07;;;2.00;;
10110;SDS011;5095;49.796;9.934;2023-04-25T10:21:25;4.27;;;2.60;;
10110;SDS011;5095;49.796;9.934;2023-04-25T10:23:53;4.50;;;2.07;;
10110;SDS011;5095;49.796;9.934;2023-04-25T10:26:20;3.57;;;2.07;;
10110;SDS011;5095;49.796;9.934;2023-04-25T10:28:59;9.57;;;2.43;;
10110;SDS011;5095;49.796;9.934;2023-04-25T10:31:26;6.53;;;2.80;;
10110;SDS011;5095;49.796;9.934;2023-04-25T10:33:52;4.90;;;2.03;;
10110;SDS011;5095;49.796;9.934;2023-04-25T10:36:21;3.43;;;1.87;;
10110;SDS011;5095;49.796;9.934;2023-04-25T10:38:48;5.40;;;2.00;;
10110;SDS011;5095;49.796;9.934;2023-04-25T10:41:17;8.33;;;2.00;;
10110;SDS011;5095;49.796;9.934;2023-04-25T10:43:44;3.27;;;1.90;;
10110;SDS011;5095;49.796;9.934;2023-04-25T10:46:23;4.77;;;2.10;;
10110;SDS011;5095;49.796;9.934;2023-04-25T10:51:28;4.67;;;1.80;;
10110;SDS011;5095;49.796;9.934;2023-04-25T10:53:56;4.30;;;1.60;;
10110;SDS011;5095;49.796;9.934;2023-04-25T10:56:32;5.00;;;1.97;;
10110;SDS011;5095;49.796;9.934;2023-04-25T10:59:06;4.70;;;2.07;;
10110;SDS011;5095;49.796;9.934;2023-04-25T11:01:36;2.90;;;1.70;;
10110;SDS011;5095;49.796;9.934;2023-04-25T11:04:02;3.07;;;1.63;;
10110;SDS011;5095;49.796;9.934;2023-04-25T11:08:57;3.37;;;1.70;;
10110;SDS011;5095;49.796;9.934;2023-04-25T11:11:25;3.73;;;1.97;;
10110;SDS011;5095;49.796;9.934;2023-04-25T11:13:51;3.20;;;1.77;;
10110;SDS011;5095;49.796;9.934;2023-04-25T11:16:17;5.93;;;2.23;;
10110;SDS011;5095;49.796;9.934;2023-04-25T11:18:44;4.40;;;2.00;;
10110;SDS011;5095;49.796;9.934;2023-04-25T11:21:10;3.80;;;1.83;;
10110;SDS011;5095;49.796;9.934;2023-04-25T11:23:37;4.77;;;1.73;;
10110;SDS011;5095;49.796;9.934;2023-04-25T11:26:06;3.57;;;2.00;;
10110;SDS011;5095;49.796;9.934;2023-04-25T11:28:32;3.03;;;1.73;;
10110;SDS011;5095;49.796;9.934;2023-04-25T11:30:58;14.13;;;9.37;;
10110;SDS011;5095;49.796;9.934;2023-04-25T11:33:24;3.37;;;1.80;;
10110;SDS011;5095;49.796;9.934;2023-04-25T11:35:54;4.23;;;1.90;;
10110;SDS011;5095;49.796;9.934;2023-04-25T11:38:21;3.03;;;1.43;;
10110;SDS011;5095;49.796;9.934;2023-04-25T11:40:51;4.07;;;2.20;;
10110;SDS011;5095;49.796;9.934;2023-04-25T11:43:18;2.60;;;1.97;;
10110;SDS011;5095;49.796;9.934;2023-04-25T11:45:46;3.87;;;1.97;;
10110;SDS011;5095;49.796;9.934;2023-04-25T11:48:12;4.77;;;2.00;;
10110;SDS011;5095;49.796;9.934;2023-04-25T11:50:39;3.07;;;2.00;;
10110;SDS011;5095;49.796;9.934;2023-04-25T11:53:05;2.57;;;1.70;;
10110;SDS011;5095;49.796;9.934;2023-04-25T11:55:32;3.47;;;1.80;;
10110;SDS011;5095;49.796;9.934;2023-04-25T11:57:59;3.67;;;1.57;;
10110;SDS011;5095;49.796;9.934;2023-04-25T12:00:25;2.07;;;1.73;;
10110;SDS011;5095;49.796;9.934;2023-04-25T12:02:55;2.50;;;1.87;;
10110;SDS011;5095;49.796;9.934;2023-04-25T12:05:26;3.77;;;2.00;;
10110;SDS011;5095;49.796;9.934;2023-04-25T12:07:52;5.77;;;2.00;;
10110;SDS011;5095;49.796;9.934;2023-04-25T12:10:19;4.57;;;2.50;;
10110;SDS011;5095;49.796;9.934;2023-04-25T12:12:46;3.70;;;2.00;;
10110;SDS011;5095;49.796;9.934;2023-04-25T12:15:13;4.50;;;2.33;;
10110;SDS011;5095;49.796;9.934;2023-04-25T12:17:54;5.83;;;2.30;;
10110;SDS011;5095;49.796;9.934;2023-04-25T12:20:21;2.40;;;1.90;;
10110;SDS011;5095;49.796;9.934;2023-04-25T12:22:50;3.83;;;1.93;;
10110;SDS011;5095;49.796;9.934;2023-04-25T12:33:23;7.83;;;3.73;;
10110;SDS011;5095;49.796;9.934;2023-04-25T12:35:49;4.93;;;2.00;;
10110;SDS011;5095;49.796;9.934;2023-04-25T12:38:30;5.10;;;2.10;;
10110;SDS011;5095;49.796;9.934;2023-04-25T12:40:58;4.77;;;2.50;;
10110;SDS011;5095;49.796;9.934;2023-04-25T12:43:25;9.10;;;4.70;;
10110;SDS011;5095;49.796;9.934;2023-04-25T12:45:51;4.93;;;2.23;;
10110;SDS011;5095;49.796;9.934;2023-04-25T12:48:17;4.13;;;2.37;;
10110;SDS011;5095;49.796;9.934;2023-04-25T12:50:43;3.47;;;2.30;;
10110;SDS011;5095;49.796;9.934;2023-04-25T12:53:10;5.27;;;2.50;;
10110;SDS011;5095;49.796;9.934;2023-04-25T12:55:36;5.27;;;2.43;;
10110;SDS011;5095;49.796;9.934;2023-04-25T12:58:02;3.73;;;2.70;;
10110;SDS011;5095;49.796;9.934;2023-04-25T13:00:29;4.67;;;2.60;;
10110;SDS011;5095;49.796;9.934;2023-04-25T13:02:55;3.63;;;2.50;;
10110;SDS011;5095;49.796;9.934;2023-04-25T13:05:21;4.27;;;2.40;;
10110;SDS011;5095;49.796;9.934;2023-04-25T13:07:47;4.33;;;2.50;;
10110;SDS011;5095;49.796;9.934;2023-04-25T13:10:13;5.67;;;2.73;;
10110;SDS011;5095;49.796;9.934;2023-04-25T13:12:39;4.80;;;2.67;;
10110;SDS011;5095;49.796;9.934;2023-04-25T13:15:05;3.50;;;2.53;;
10110;SDS011;5095;49.796;9.934;2023-04-25T13:17:34;5.77;;;2.77;;
10110;SDS011;5095;49.796;9.934;2023-04-25T13:20:00;4.03;;;2.47;;
10110;SDS011;5095;49.796;9.934;2023-04-25T13:22:26;4.70;;;2.70;;
10110;SDS011;5095;49.796;9.934;2023-04-25T13:24:52;4.87;;;2.90;;
10110;SDS011;5095;49.796;9.934;2023-04-25T13:27:18;5.00;;;2.83;;
10110;SDS011;5095;49.796;9.934;2023-04-25T13:29:44;4.47;;;3.00;;
10110;SDS011;5095;49.796;9.934;2023-04-25T13:32:10;3.80;;;2.90;;
10110;SDS011;5095;49.796;9.934;2023-04-25T13:34:36;4.03;;;2.73;;
10110;SDS011;5095;49.796;9.934;2023-04-25T13:37:02;5.97;;;3.30;;
10110;SDS011;5095;49.796;9.934;2023-04-25T13:39:28;5.57;;;2.87;;
10110;SDS011;5095;49.796;9.934;2023-04-25T13:41:54;6.90;;;3.83;;
10110;SDS011;5095;49.796;9.934;2023-04-25T13:44:21;8.00;;;4.87;;
10110;SDS011;5095;49.796;9.934;2023-04-25T13:46:47;4.43;;;2.40;;
10110;SDS011;5095;49.796;9.934;2023-04-25T13:49:13;7.43;;;2.60;;
10110;SDS011;5095;49.796;9.934;2023-04-25T13:51:39;4.70;;;2.93;;
10110;SDS011;5095;49.796;9.934;2023-04-25T13:54:05;4.43;;;2.90;;
10110;SDS011;5095;49.796;9.934;2023-04-25T13:56:31;5.00;;;2.40;;
10110;SDS011;5095;49.796;9.934;2023-04-25T13:58:57;5.77;;;3.47;;
10110;SDS011;5095;49.796;9.934;2023-04-25T14:01:23;5.90;;;2.77;;
10110;SDS011;5095;49.796;9.934;2023-04-25T14:03:49;3.93;;;2.40;;
10110;SDS011;5095;49.796;9.934;2023-04-25T14:06:15;11.63;;;6.83;;
10110;SDS011;5095;49.796;9.934;2023-04-25T14:08:47;5.33;;;2.40;;
10110;SDS011;5095;49.796;9.934;2023-04-25T14:11:13;2.53;;;1.93;;
10110;SDS011;5095;49.796;9.934;2023-04-25T14:13:39;4.43;;;2.23;;
10110;SDS011;5095;49.796;9.934;2023-04-25T14:16:05;3.30;;;2.10;;
10110;SDS011;5095;49.796;9.934;2023-04-25T14:18:31;4.23;;;2.20;;
10110;SDS011;5095;49.796;9.934;2023-04-25T14:20:57;4.53;;;2.10;;
10110;SDS011;5095;49.796;9.934;2023-04-25T14:23:23;2.60;;;1.70;;
10110;SDS011;5095;49.796;9.934;2023-04-25T14:25:50;5.90;;;2.30;;
10110;SDS011;5095;49.796;9.934;2023-04-25T14:28:16;2.03;;;1.70;;
10110;SDS011;5095;49.796;9.934;2023-04-25T14:30:42;4.67;;;2.07;;
10110;SDS011;5095;49.796;9.934;2023-04-25T14:33:08;3.90;;;1.90;;
10110;SDS011;5095;49.796;9.934;2023-04-25T14:35:34;4.13;;;1.90;;
10110;SDS011;5095;49.796;9.934;2023-04-25T14:38:00;2.97;;;1.80;;
10110;SDS011;5095;49.796;9.934;2023-04-25T14:40:26;2.83;;;1.97;;
10110;SDS011;5095;49.796;9.934;2023-04-25T14:42:52;4.40;;;2.10;;
10110;SDS011;5095;49.796;9.934;2023-04-25T14:45:18;6.33;;;1.93;;
10110;SDS011;5095;49.796;9.934;2023-04-25T14:47:44;4.00;;;1.90;;
10110;SDS011;5095;49.796;9.934;2023-04-25T14:50:10;6.13;;;2.50;;
10110;SDS011;5095;49.796;9.934;2023-04-25T14:52:37;7.83;;;2.13;;
10110;SDS011;5095;49.796;9.934;2023-04-25T14:55:03;8.47;;;2.10;;
10110;SDS011;5095;49.796;9.934;2023-04-25T14:57:32;5.33;;;2.17;;
10110;SDS011;5095;49.796;9.934;2023-04-25T14:59:58;4.03;;;2.30;;
10110;SDS011;5095;49.796;9.934;2023-04-25T15:02:24;4.47;;;1.93;;
10110;SDS011;5095;49.796;9.934;2023-04-25T15:04:51;4.00;;;2.00;;
10110;SDS011;5095;49.796;9.934;2023-04-25T15:07:17;6.50;;;2.20;;
10110;SDS011;5095;49.796;9.934;2023-04-25T15:09:43;4.97;;;2.37;;
10110;SDS011;5095;49.796;9.934;2023-04-25T15:12:09;4.13;;;1.97;;
10110;SDS011;5095;49.796;9.934;2023-04-25T15:14:36;6.67;;;3.10;;